PWSweather.com
Personal Weather Stations
Station Observations
KCAOCEAN4
Jeffries Ranch, Oceanside, CA 92057

Jeffries RanchOceanside, CA 92057

Lat: 33.24433789, Lon: -117.25337219

Elevation: 207

Station Type: Davis Vantage Vue

jeffriesranchweather.com

High Low Average
Temperature 72.3°F22.4°C 56.1°F13.4°C 65.3°F18.5°C
Dew Point 61.3°F16.3°C 54.1°F12.3°C 58.5°F14.7°C
Winds 6.9 mph 11.1 kmh Calm Calm 2.0 mph SSE3.2 kmh SSE
Wind Gusts 14.1 mph22.7 kmh -- 6.0 mph9.7 kmh
Humidity 93% 61% 80%
Pressure 29.90 in1012.5 mb 29.83 in1010.2 mb -
Precipitation 0.00 in0.0 mm - -
Hour Temp Dew Point Humidity Winds Wind Gusts Pressure Precip Precip Rate Daily Precip Total
12:05 AM 64.0°F17.8°C 58.8°F14.9°C 83% Calm Calm 0.9 mph1.4 kmh 29.85 in1010.8 mb 0.00 in0.0 mm 0.00 in0.0 mm 0.00 in0.0 mm
12:15 AM 64.0°F17.8°C 59.2°F15.1°C 84% 0.9 mph SE1.4 kmh SE 2.0 mph3.2 kmh 29.85 in1010.8 mb 0.00 in0.0 mm 0.00 in0.0 mm 0.00 in0.0 mm
12:25 AM 64.0°F17.8°C 58.8°F14.9°C 83% 0.9 mph E1.4 kmh E 2.0 mph3.2 kmh 29.85 in1010.8 mb 0.00 in0.0 mm 0.00 in0.0 mm 0.00 in0.0 mm
12:35 AM 64.0°F17.8°C 58.8°F14.9°C 83% Calm Calm 0.9 mph1.4 kmh 29.85 in1010.8 mb 0.00 in0.0 mm 0.00 in0.0 mm 0.00 in0.0 mm
12:45 AM 64.0°F17.8°C 58.8°F14.9°C 83% 0.9 mph E1.4 kmh E 2.0 mph3.2 kmh 29.85 in1010.8 mb 0.00 in0.0 mm 0.00 in0.0 mm 0.00 in0.0 mm
12:55 AM 64.0°F17.8°C 58.8°F14.9°C 83% 0.9 mph E1.4 kmh E 3.0 mph4.8 kmh 29.86 in1011.2 mb 0.00 in0.0 mm 0.00 in0.0 mm 0.00 in0.0 mm
01:05 AM 64.0°F17.8°C 58.8°F14.9°C 83% 0.9 mph ENE1.4 kmh ENE 2.0 mph3.2 kmh 29.85 in1010.8 mb 0.00 in0.0 mm 0.00 in0.0 mm 0.00 in0.0 mm
01:15 AM 64.0°F17.8°C 58.8°F14.9°C 83% 0.9 mph SSE1.4 kmh SSE 6.0 mph9.7 kmh 29.85 in1010.8 mb 0.00 in0.0 mm 0.00 in0.0 mm 0.00 in0.0 mm
01:25 AM 64.0°F17.8°C 58.8°F14.9°C 83% Calm Calm 4.0 mph6.4 kmh 29.86 in1011.2 mb 0.00 in0.0 mm 0.00 in0.0 mm 0.00 in0.0 mm
01:35 AM 63.9°F17.7°C 59.0°F15.0°C 84% Calm Calm 2.0 mph3.2 kmh 29.86 in1011.2 mb 0.00 in0.0 mm 0.00 in0.0 mm 0.00 in0.0 mm
01:45 AM 63.9°F17.7°C 59.0°F15.0°C 84% Calm Calm 0.9 mph1.4 kmh 29.85 in1010.8 mb 0.00 in0.0 mm 0.00 in0.0 mm 0.00 in0.0 mm
01:55 AM 63.9°F17.7°C 59.0°F15.0°C 84% Calm Calm 0.9 mph1.4 kmh 29.85 in1010.8 mb 0.00 in0.0 mm 0.00 in0.0 mm 0.00 in0.0 mm
02:05 AM 63.9°F17.7°C 59.0°F15.0°C 84% Calm Calm 2.9 mph4.7 kmh 29.85 in1010.8 mb 0.00 in0.0 mm 0.00 in0.0 mm 0.00 in0.0 mm
02:15 AM 63.9°F17.7°C 59.0°F15.0°C 84% Calm Calm 2.0 mph3.2 kmh 29.85 in1010.8 mb 0.00 in0.0 mm 0.00 in0.0 mm 0.00 in0.0 mm
02:25 AM 63.9°F17.7°C 59.0°F15.0°C 84% 0.9 mph NNW1.4 kmh NNW 2.0 mph3.2 kmh 29.85 in1010.8 mb 0.00 in0.0 mm 0.00 in0.0 mm 0.00 in0.0 mm
02:35 AM 63.7°F17.6°C 58.8°F14.9°C 84% Calm Calm 0.9 mph1.4 kmh 29.85 in1010.8 mb 0.00 in0.0 mm 0.00 in0.0 mm 0.00 in0.0 mm
02:45 AM 63.7°F17.6°C 59.0°F15.0°C 85% 0.9 mph NE1.4 kmh NE 2.0 mph3.2 kmh 29.86 in1011.2 mb 0.00 in0.0 mm 0.00 in0.0 mm 0.00 in0.0 mm
02:55 AM 63.7°F17.6°C 59.0°F15.0°C 85% 0.9 mph NE1.4 kmh NE 3.0 mph4.8 kmh 29.86 in1011.2 mb 0.00 in0.0 mm 0.00 in0.0 mm 0.00 in0.0 mm
03:05 AM 63.7°F17.6°C 59.0°F15.0°C 85% Calm Calm 2.0 mph3.2 kmh 29.85 in1010.8 mb 0.00 in0.0 mm 0.00 in0.0 mm 0.00 in0.0 mm
03:15 AM 63.7°F17.6°C 58.8°F14.9°C 84% Calm Calm 2.0 mph3.2 kmh 29.85 in1010.8 mb 0.00 in0.0 mm 0.00 in0.0 mm 0.00 in0.0 mm
03:25 AM 63.7°F17.6°C 59.0°F15.0°C 85% 0.9 mph NE1.4 kmh NE 4.0 mph6.4 kmh 29.85 in1010.8 mb 0.00 in0.0 mm 0.00 in0.0 mm 0.00 in0.0 mm
03:35 AM 63.3°F17.4°C 58.8°F14.9°C 85% 2.0 mph NE3.2 kmh NE 4.0 mph6.4 kmh 29.85 in1010.8 mb 0.00 in0.0 mm 0.00 in0.0 mm 0.00 in0.0 mm
03:45 AM 63.3°F17.4°C 58.8°F14.9°C 85% 0.9 mph NE1.4 kmh NE 4.0 mph6.4 kmh 29.85 in1010.8 mb 0.00 in0.0 mm 0.00 in0.0 mm 0.00 in0.0 mm
03:55 AM 63.3°F17.4°C 58.8°F14.9°C 85% 2.0 mph NNE3.2 kmh NNE 4.0 mph6.4 kmh 29.84 in1010.5 mb 0.00 in0.0 mm 0.00 in0.0 mm 0.00 in0.0 mm
04:05 AM 63.1°F17.3°C 58.8°F14.9°C 86% 2.9 mph N4.7 kmh N 7.0 mph11.3 kmh 29.85 in1010.8 mb 0.00 in0.0 mm 0.00 in0.0 mm 0.00 in0.0 mm
04:15 AM 63.1°F17.3°C 58.8°F14.9°C 86% 2.0 mph N3.2 kmh N 4.9 mph7.9 kmh 29.85 in1010.8 mb 0.00 in0.0 mm 0.00 in0.0 mm 0.00 in0.0 mm
04:25 AM 62.8°F17.1°C 58.8°F14.9°C 87% 2.9 mph NNE4.7 kmh NNE 6.0 mph9.7 kmh 29.85 in1010.8 mb 0.00 in0.0 mm 0.00 in0.0 mm 0.00 in0.0 mm
04:35 AM 62.8°F17.1°C 58.8°F14.9°C 87% 2.0 mph NE3.2 kmh NE 4.9 mph7.9 kmh 29.85 in1010.8 mb 0.00 in0.0 mm 0.00 in0.0 mm 0.00 in0.0 mm
04:45 AM 62.4°F16.9°C 58.5°F14.7°C 87% 2.9 mph NE4.7 kmh NE 4.9 mph7.9 kmh 29.85 in1010.8 mb 0.00 in0.0 mm 0.00 in0.0 mm 0.00 in0.0 mm
04:55 AM 62.4°F16.9°C 58.5°F14.7°C 87% 2.9 mph ENE4.7 kmh ENE 4.9 mph7.9 kmh 29.85 in1010.8 mb 0.00 in0.0 mm 0.00 in0.0 mm 0.00 in0.0 mm
05:05 AM 62.4°F16.9°C 58.5°F14.7°C 87% 2.9 mph NE4.7 kmh NE 4.9 mph7.9 kmh 29.85 in1010.8 mb 0.00 in0.0 mm 0.00 in0.0 mm 0.00 in0.0 mm
05:15 AM 62.2°F16.8°C 58.3°F14.6°C 87% 2.0 mph NE3.2 kmh NE 6.0 mph9.7 kmh 29.86 in1011.2 mb 0.00 in0.0 mm 0.00 in0.0 mm 0.00 in0.0 mm
05:25 AM 62.4°F16.9°C 58.5°F14.7°C 87% 2.0 mph ENE3.2 kmh ENE 4.0 mph6.4 kmh 29.86 in1011.2 mb 0.00 in0.0 mm 0.00 in0.0 mm 0.00 in0.0 mm
05:35 AM 62.4°F16.9°C 58.5°F14.7°C 87% 0.9 mph E1.4 kmh E 4.0 mph6.4 kmh 29.86 in1011.2 mb 0.00 in0.0 mm 0.00 in0.0 mm 0.00 in0.0 mm
05:45 AM 62.4°F16.9°C 58.5°F14.7°C 87% 0.9 mph ENE1.4 kmh ENE 2.9 mph4.7 kmh 29.86 in1011.2 mb 0.00 in0.0 mm 0.00 in0.0 mm 0.00 in0.0 mm
05:55 AM 62.4°F16.9°C 58.5°F14.7°C 87% 0.9 mph NE1.4 kmh NE 2.9 mph4.7 kmh 29.86 in1011.2 mb 0.00 in0.0 mm 0.00 in0.0 mm 0.00 in0.0 mm
06:05 AM 62.4°F16.9°C 58.5°F14.7°C 87% 0.9 mph NNE1.4 kmh NNE 5.0 mph8.0 kmh 29.87 in1011.5 mb 0.00 in0.0 mm 0.00 in0.0 mm 0.00 in0.0 mm
06:15 AM 62.4°F16.9°C 58.1°F14.5°C 86% 0.9 mph ENE1.4 kmh ENE 2.9 mph4.7 kmh 29.87 in1011.5 mb 0.00 in0.0 mm 0.00 in0.0 mm 0.00 in0.0 mm
06:25 AM 62.4°F16.9°C 57.9°F14.4°C 85% 2.9 mph NE4.7 kmh NE 5.0 mph8.0 kmh 29.87 in1011.5 mb 0.00 in0.0 mm 0.00 in0.0 mm 0.00 in0.0 mm
06:35 AM 62.2°F16.8°C 57.7°F14.3°C 85% 2.0 mph E3.2 kmh E 4.9 mph7.9 kmh 29.87 in1011.5 mb 0.00 in0.0 mm 0.00 in0.0 mm 0.00 in0.0 mm
06:45 AM 62.4°F16.9°C 57.6°F14.2°C 84% 2.0 mph NE3.2 kmh NE 4.0 mph6.4 kmh 29.87 in1011.5 mb 0.00 in0.0 mm 0.00 in0.0 mm 0.00 in0.0 mm
06:55 AM 62.4°F16.9°C 57.6°F14.2°C 84% 2.0 mph E3.2 kmh E 2.9 mph4.7 kmh 29.88 in1011.9 mb 0.00 in0.0 mm 0.00 in0.0 mm 0.00 in0.0 mm
07:05 AM 62.4°F16.9°C 57.2°F14.0°C 83% 2.0 mph ENE3.2 kmh ENE 2.9 mph4.7 kmh 29.88 in1011.9 mb 0.00 in0.0 mm 0.00 in0.0 mm 0.00 in0.0 mm
07:15 AM 62.6°F17.0°C 57.4°F14.1°C 83% 2.0 mph E3.2 kmh E 5.0 mph8.0 kmh 29.88 in1011.9 mb 0.00 in0.0 mm 0.00 in0.0 mm 0.00 in0.0 mm
07:25 AM 62.6°F17.0°C 57.4°F14.1°C 83% 2.0 mph E3.2 kmh E 4.0 mph6.4 kmh 29.88 in1011.9 mb 0.00 in0.0 mm 0.00 in0.0 mm 0.00 in0.0 mm
07:35 AM 62.8°F17.1°C 57.2°F14.0°C 82% 0.9 mph ENE1.4 kmh ENE 4.0 mph6.4 kmh 29.88 in1011.9 mb 0.00 in0.0 mm 0.00 in0.0 mm 0.00 in0.0 mm
07:45 AM 63.0°F17.2°C 57.0°F13.9°C 81% 0.9 mph NE1.4 kmh NE 4.0 mph6.4 kmh 29.89 in1012.2 mb 0.00 in0.0 mm 0.00 in0.0 mm 0.00 in0.0 mm
07:55 AM 63.0°F17.2°C 57.0°F13.9°C 81% 2.0 mph ENE3.2 kmh ENE 4.0 mph6.4 kmh 29.89 in1012.2 mb 0.00 in0.0 mm 0.00 in0.0 mm 0.00 in0.0 mm
08:05 AM 63.0°F17.2°C 57.0°F13.9°C 81% 2.0 mph NE3.2 kmh NE 4.0 mph6.4 kmh 29.89 in1012.2 mb 0.00 in0.0 mm 0.00 in0.0 mm 0.00 in0.0 mm
08:15 AM 63.9°F17.7°C 57.2°F14.0°C 79% 2.0 mph NE3.2 kmh NE 4.0 mph6.4 kmh 29.89 in1012.2 mb 0.00 in0.0 mm 0.00 in0.0 mm 0.00 in0.0 mm
08:25 AM 64.4°F18.0°C 57.4°F14.1°C 78% 2.0 mph ENE3.2 kmh ENE 4.0 mph6.4 kmh 29.90 in1012.5 mb 0.00 in0.0 mm 0.00 in0.0 mm 0.00 in0.0 mm
08:35 AM 64.8°F18.2°C 57.4°F14.1°C 77% 2.0 mph ENE3.2 kmh ENE 4.0 mph6.4 kmh 29.90 in1012.5 mb 0.00 in0.0 mm 0.00 in0.0 mm 0.00 in0.0 mm
08:45 AM 64.8°F18.2°C 57.4°F14.1°C 77% 0.9 mph SE1.4 kmh SE 4.0 mph6.4 kmh 29.90 in1012.5 mb 0.00 in0.0 mm 0.00 in0.0 mm 0.00 in0.0 mm
08:55 AM 64.9°F18.3°C 57.2°F14.0°C 76% 0.9 mph ENE1.4 kmh ENE 4.0 mph6.4 kmh 29.90 in1012.5 mb 0.00 in0.0 mm 0.00 in0.0 mm 0.00 in0.0 mm
09:05 AM 65.3°F18.5°C 57.2°F14.0°C 75% 0.9 mph E1.4 kmh E 6.0 mph9.7 kmh 29.90 in1012.5 mb 0.00 in0.0 mm 0.00 in0.0 mm 0.00 in0.0 mm
09:15 AM 66.4°F19.1°C 57.4°F14.1°C 73% 0.9 mph NE1.4 kmh NE 2.9 mph4.7 kmh 29.90 in1012.5 mb 0.00 in0.0 mm 0.00 in0.0 mm 0.00 in0.0 mm
09:25 AM 65.7°F18.7°C 56.8°F13.8°C 73% 2.0 mph W3.2 kmh W 6.0 mph9.7 kmh 29.90 in1012.5 mb 0.00 in0.0 mm 0.00 in0.0 mm 0.00 in0.0 mm
09:35 AM 66.4°F19.1°C 57.0°F13.9°C 72% 0.9 mph NE1.4 kmh NE 5.0 mph8.0 kmh 29.90 in1012.5 mb 0.00 in0.0 mm 0.00 in0.0 mm 0.00 in0.0 mm
09:45 AM 66.7°F19.3°C 57.4°F14.1°C 72% 2.0 mph NE3.2 kmh NE 4.9 mph7.9 kmh 29.90 in1012.5 mb 0.00 in0.0 mm 0.00 in0.0 mm 0.00 in0.0 mm
09:55 AM 66.9°F19.4°C 57.6°F14.2°C 72% 0.9 mph ENE1.4 kmh ENE 2.0 mph3.2 kmh 29.90 in1012.5 mb 0.00 in0.0 mm 0.00 in0.0 mm 0.00 in0.0 mm
10:05 AM 66.9°F19.4°C 56.8°F13.8°C 70% 2.0 mph E3.2 kmh E 4.0 mph6.4 kmh 29.90 in1012.5 mb 0.00 in0.0 mm 0.00 in0.0 mm 0.00 in0.0 mm
10:15 AM 68.4°F20.2°C 57.4°F14.1°C 68% Calm Calm 4.0 mph6.4 kmh 29.90 in1012.5 mb 0.00 in0.0 mm 0.00 in0.0 mm 0.00 in0.0 mm
10:25 AM 68.5°F20.3°C 57.2°F14.0°C 67% 2.0 mph NNW3.2 kmh NNW 5.0 mph8.0 kmh 29.90 in1012.5 mb 0.00 in0.0 mm 0.00 in0.0 mm 0.00 in0.0 mm
10:35 AM 69.3°F20.7°C 57.0°F13.9°C 65% 0.9 mph WSW1.4 kmh WSW 4.0 mph6.4 kmh 29.89 in1012.2 mb 0.00 in0.0 mm 0.00 in0.0 mm 0.00 in0.0 mm
10:45 AM 69.4°F20.8°C 57.2°F14.0°C 65% 2.0 mph W3.2 kmh W 5.0 mph8.0 kmh 29.89 in1012.2 mb 0.00 in0.0 mm 0.00 in0.0 mm 0.00 in0.0 mm
10:55 AM 70.0°F21.1°C 57.7°F14.3°C 65% 2.0 mph SW3.2 kmh SW 4.9 mph7.9 kmh 29.88 in1011.9 mb 0.00 in0.0 mm 0.00 in0.0 mm 0.00 in0.0 mm
11:05 AM 70.9°F21.6°C 57.7°F14.3°C 63% 0.9 mph SW1.4 kmh SW 6.0 mph9.7 kmh 29.88 in1011.9 mb 0.00 in0.0 mm 0.00 in0.0 mm 0.00 in0.0 mm
11:15 AM 71.2°F21.8°C 57.6°F14.2°C 62% 2.0 mph NNW3.2 kmh NNW 6.0 mph9.7 kmh 29.88 in1011.9 mb 0.00 in0.0 mm 0.00 in0.0 mm 0.00 in0.0 mm
11:25 AM 72.0°F22.2°C 57.7°F14.3°C 61% 2.0 mph WSW3.2 kmh WSW 6.0 mph9.7 kmh 29.88 in1011.9 mb 0.00 in0.0 mm 0.00 in0.0 mm 0.00 in0.0 mm
11:35 AM 72.1°F22.3°C 58.5°F14.7°C 62% 2.9 mph W4.7 kmh W 6.0 mph9.7 kmh 29.88 in1011.9 mb 0.00 in0.0 mm 0.00 in0.0 mm 0.00 in0.0 mm
11:45 AM 72.3°F22.4°C 59.0°F15.0°C 63% 4.0 mph W6.4 kmh W 12.1 mph19.5 kmh 29.88 in1011.9 mb 0.00 in0.0 mm 0.00 in0.0 mm 0.00 in0.0 mm
11:55 AM 72.1°F22.3°C 59.4°F15.2°C 64% 4.9 mph WNW7.9 kmh WNW 12.1 mph19.5 kmh 29.88 in1011.9 mb 0.00 in0.0 mm 0.00 in0.0 mm 0.00 in0.0 mm
12:05 PM 71.4°F21.9°C 59.0°F15.0°C 65% 6.0 mph NW9.7 kmh NW 11.0 mph17.7 kmh 29.88 in1011.9 mb 0.00 in0.0 mm 0.00 in0.0 mm 0.00 in0.0 mm
12:15 PM 71.6°F22.0°C 59.7°F15.4°C 66% 4.9 mph WSW7.9 kmh WSW 13.0 mph20.9 kmh 29.88 in1011.9 mb 0.00 in0.0 mm 0.00 in0.0 mm 0.00 in0.0 mm
12:25 PM 71.6°F22.0°C 60.1°F15.6°C 67% 4.9 mph WSW7.9 kmh WSW 12.1 mph19.5 kmh 29.87 in1011.5 mb 0.00 in0.0 mm 0.00 in0.0 mm 0.00 in0.0 mm
12:35 PM 72.1°F22.3°C 60.1°F15.6°C 66% 6.0 mph W9.7 kmh W 11.0 mph17.7 kmh 29.87 in1011.5 mb 0.00 in0.0 mm 0.00 in0.0 mm 0.00 in0.0 mm
12:45 PM 71.8°F22.1°C 59.7°F15.4°C 66% 6.0 mph W9.7 kmh W 12.1 mph19.5 kmh 29.87 in1011.5 mb 0.00 in0.0 mm 0.00 in0.0 mm 0.00 in0.0 mm
12:55 PM 72.0°F22.2°C 59.9°F15.5°C 66% 6.0 mph WNW9.7 kmh WNW 12.1 mph19.5 kmh 29.86 in1011.2 mb 0.00 in0.0 mm 0.00 in0.0 mm 0.00 in0.0 mm
01:05 PM 71.6°F22.0°C 59.7°F15.4°C 66% 6.9 mph NW11.1 kmh NW 14.1 mph22.7 kmh 29.86 in1011.2 mb 0.00 in0.0 mm 0.00 in0.0 mm 0.00 in0.0 mm
01:15 PM 71.6°F22.0°C 60.1°F15.6°C 67% 6.0 mph WSW9.7 kmh WSW 11.0 mph17.7 kmh 29.86 in1011.2 mb 0.00 in0.0 mm 0.00 in0.0 mm 0.00 in0.0 mm
01:25 PM 72.0°F22.2°C 59.9°F15.5°C 66% 6.0 mph WSW9.7 kmh WSW 12.1 mph19.5 kmh 29.85 in1010.8 mb 0.00 in0.0 mm 0.00 in0.0 mm 0.00 in0.0 mm
01:35 PM 71.4°F21.9°C 59.9°F15.5°C 67% 6.9 mph WSW11.1 kmh WSW 13.0 mph20.9 kmh 29.85 in1010.8 mb 0.00 in0.0 mm 0.00 in0.0 mm 0.00 in0.0 mm
01:45 PM 71.8°F22.1°C 60.3°F15.7°C 67% 6.0 mph WSW9.7 kmh WSW 11.0 mph17.7 kmh 29.85 in1010.8 mb 0.00 in0.0 mm 0.00 in0.0 mm 0.00 in0.0 mm
01:55 PM 72.0°F22.2°C 59.9°F15.5°C 66% 6.0 mph WNW9.7 kmh WNW 12.1 mph19.5 kmh 29.85 in1010.8 mb 0.00 in0.0 mm 0.00 in0.0 mm 0.00 in0.0 mm
02:05 PM 72.0°F22.2°C 59.9°F15.5°C 66% 6.9 mph WNW11.1 kmh WNW 14.1 mph22.7 kmh 29.84 in1010.5 mb 0.00 in0.0 mm 0.00 in0.0 mm 0.00 in0.0 mm
02:15 PM 71.4°F21.9°C 59.9°F15.5°C 67% 6.9 mph WNW11.1 kmh WNW 12.1 mph19.5 kmh 29.84 in1010.5 mb 0.00 in0.0 mm 0.00 in0.0 mm 0.00 in0.0 mm
02:25 PM 71.4°F21.9°C 59.5°F15.3°C 66% 6.9 mph WNW11.1 kmh WNW 12.1 mph19.5 kmh 29.84 in1010.5 mb 0.00 in0.0 mm 0.00 in0.0 mm 0.00 in0.0 mm
02:35 PM 71.2°F21.8°C 59.7°F15.4°C 67% 6.0 mph W9.7 kmh W 11.0 mph17.7 kmh 29.84 in1010.5 mb 0.00 in0.0 mm 0.00 in0.0 mm 0.00 in0.0 mm
02:45 PM 71.1°F21.7°C 59.9°F15.5°C 68% 6.9 mph WSW11.1 kmh WSW 12.1 mph19.5 kmh 29.84 in1010.5 mb 0.00 in0.0 mm 0.00 in0.0 mm 0.00 in0.0 mm
02:55 PM 71.4°F21.9°C 59.9°F15.5°C 67% 6.0 mph WSW9.7 kmh WSW 11.0 mph17.7 kmh 29.84 in1010.5 mb 0.00 in0.0 mm 0.00 in0.0 mm 0.00 in0.0 mm
03:05 PM 71.4°F21.9°C 60.3°F15.7°C 68% 6.0 mph NW9.7 kmh NW 11.0 mph17.7 kmh 29.84 in1010.5 mb 0.00 in0.0 mm 0.00 in0.0 mm 0.00 in0.0 mm
03:15 PM 72.0°F22.2°C 59.9°F15.5°C 66% 6.0 mph WNW9.7 kmh WNW 10.1 mph16.3 kmh 29.84 in1010.5 mb 0.00 in0.0 mm 0.00 in0.0 mm 0.00 in0.0 mm
03:25 PM 71.2°F21.8°C 60.6°F15.9°C 69% 6.9 mph WSW11.1 kmh WSW 11.0 mph17.7 kmh 29.84 in1010.5 mb 0.00 in0.0 mm 0.00 in0.0 mm 0.00 in0.0 mm
03:35 PM 71.2°F21.8°C 60.6°F15.9°C 69% 6.0 mph W9.7 kmh W 11.0 mph17.7 kmh 29.83 in1010.2 mb 0.00 in0.0 mm 0.00 in0.0 mm 0.00 in0.0 mm
03:45 PM 71.2°F21.8°C 60.6°F15.9°C 69% 6.0 mph WNW9.7 kmh WNW 12.1 mph19.5 kmh 29.83 in1010.2 mb 0.00 in0.0 mm 0.00 in0.0 mm 0.00 in0.0 mm
03:55 PM 70.9°F21.6°C 61.0°F16.1°C 71% 6.0 mph WSW9.7 kmh WSW 12.1 mph19.5 kmh 29.83 in1010.2 mb 0.00 in0.0 mm 0.00 in0.0 mm 0.00 in0.0 mm
04:05 PM 71.4°F21.9°C 61.2°F16.2°C 70% 4.9 mph WSW7.9 kmh WSW 11.0 mph17.7 kmh 29.83 in1010.2 mb 0.00 in0.0 mm 0.00 in0.0 mm 0.00 in0.0 mm
04:15 PM 71.2°F21.8°C 61.0°F16.1°C 70% 6.0 mph W9.7 kmh W 10.1 mph16.3 kmh 29.83 in1010.2 mb 0.00 in0.0 mm 0.00 in0.0 mm 0.00 in0.0 mm
04:25 PM 71.2°F21.8°C 61.3°F16.3°C 71% 4.9 mph WSW7.9 kmh WSW 11.0 mph17.7 kmh 29.83 in1010.2 mb 0.00 in0.0 mm 0.00 in0.0 mm 0.00 in0.0 mm
04:35 PM 70.5°F21.4°C 61.0°F16.1°C 72% 6.0 mph SW9.7 kmh SW 11.0 mph17.7 kmh 29.83 in1010.2 mb 0.00 in0.0 mm 0.00 in0.0 mm 0.00 in0.0 mm
04:45 PM 70.3°F21.3°C 60.8°F16.0°C 72% 4.9 mph W7.9 kmh W 11.0 mph17.7 kmh 29.83 in1010.2 mb 0.00 in0.0 mm 0.00 in0.0 mm 0.00 in0.0 mm
04:55 PM 70.0°F21.1°C 61.0°F16.1°C 73% 6.0 mph WNW9.7 kmh WNW 12.1 mph19.5 kmh 29.83 in1010.2 mb 0.00 in0.0 mm 0.00 in0.0 mm 0.00 in0.0 mm
05:06 PM 70.0°F21.1°C 61.0°F16.1°C 73% 6.0 mph W9.7 kmh W 10.1 mph16.3 kmh 29.83 in1010.2 mb 0.00 in0.0 mm 0.00 in0.0 mm 0.00 in0.0 mm
05:16 PM 69.6°F20.9°C 60.6°F15.9°C 73% 4.9 mph NW7.9 kmh NW 10.1 mph16.3 kmh 29.83 in1010.2 mb 0.00 in0.0 mm 0.00 in0.0 mm 0.00 in0.0 mm
05:26 PM 69.4°F20.8°C 60.4°F15.8°C 73% 4.0 mph WSW6.4 kmh WSW 10.1 mph16.3 kmh 29.83 in1010.2 mb 0.00 in0.0 mm 0.00 in0.0 mm 0.00 in0.0 mm
05:36 PM 69.1°F20.6°C 60.4°F15.8°C 74% 4.0 mph SW6.4 kmh SW 10.1 mph16.3 kmh 29.83 in1010.2 mb 0.00 in0.0 mm 0.00 in0.0 mm 0.00 in0.0 mm
05:46 PM 68.5°F20.3°C 60.3°F15.7°C 75% 4.0 mph WSW6.4 kmh WSW 8.9 mph14.3 kmh 29.83 in1010.2 mb 0.00 in0.0 mm 0.00 in0.0 mm 0.00 in0.0 mm
05:56 PM 68.2°F20.1°C 60.3°F15.7°C 76% 2.9 mph W4.7 kmh W 8.1 mph13.0 kmh 29.83 in1010.2 mb 0.00 in0.0 mm 0.00 in0.0 mm 0.00 in0.0 mm
06:06 PM 67.3°F19.6°C 60.6°F15.9°C 79% 2.9 mph W4.7 kmh W 8.1 mph13.0 kmh 29.83 in1010.2 mb 0.00 in0.0 mm 0.00 in0.0 mm 0.00 in0.0 mm
06:16 PM 66.7°F19.3°C 60.4°F15.8°C 80% 2.9 mph SW4.7 kmh SW 6.0 mph9.7 kmh 29.84 in1010.5 mb 0.00 in0.0 mm 0.00 in0.0 mm 0.00 in0.0 mm
06:26 PM 66.2°F19.0°C 60.3°F15.7°C 81% 2.0 mph S3.2 kmh S 4.9 mph7.9 kmh 29.84 in1010.5 mb 0.00 in0.0 mm 0.00 in0.0 mm 0.00 in0.0 mm
06:36 PM 65.7°F18.7°C 60.1°F15.6°C 82% 2.0 mph S3.2 kmh S 7.0 mph11.3 kmh 29.84 in1010.5 mb 0.00 in0.0 mm 0.00 in0.0 mm 0.00 in0.0 mm
06:46 PM 65.5°F18.6°C 60.3°F15.7°C 83% 0.9 mph SW1.4 kmh SW 4.9 mph7.9 kmh 29.84 in1010.5 mb 0.00 in0.0 mm 0.00 in0.0 mm 0.00 in0.0 mm
06:56 PM 64.9°F18.3°C 59.9°F15.5°C 84% Calm Calm 2.0 mph3.2 kmh 29.85 in1010.8 mb 0.00 in0.0 mm 0.00 in0.0 mm 0.00 in0.0 mm
07:06 PM 64.9°F18.3°C 60.3°F15.7°C 85% 0.9 mph SW1.4 kmh SW 4.0 mph6.4 kmh 29.85 in1010.8 mb 0.00 in0.0 mm 0.00 in0.0 mm 0.00 in0.0 mm
07:16 PM 64.6°F18.1°C 59.9°F15.5°C 85% 0.9 mph SSE1.4 kmh SSE 4.0 mph6.4 kmh 29.85 in1010.8 mb 0.00 in0.0 mm 0.00 in0.0 mm 0.00 in0.0 mm
07:26 PM 64.4°F18.0°C 59.7°F15.4°C 85% 0.9 mph SSE1.4 kmh SSE 4.0 mph6.4 kmh 29.86 in1011.2 mb 0.00 in0.0 mm 0.00 in0.0 mm 0.00 in0.0 mm
07:36 PM 64.2°F17.9°C 59.9°F15.5°C 86% 0.9 mph SSW1.4 kmh SSW 2.9 mph4.7 kmh 29.86 in1011.2 mb 0.00 in0.0 mm 0.00 in0.0 mm 0.00 in0.0 mm
07:46 PM 64.0°F17.8°C 59.7°F15.4°C 86% 0.9 mph SSE1.4 kmh SSE 4.0 mph6.4 kmh 29.86 in1011.2 mb 0.00 in0.0 mm 0.00 in0.0 mm 0.00 in0.0 mm
07:56 PM 63.9°F17.7°C 59.9°F15.5°C 87% 0.9 mph SSW1.4 kmh SSW 2.0 mph3.2 kmh 29.86 in1011.2 mb 0.00 in0.0 mm 0.00 in0.0 mm 0.00 in0.0 mm
08:06 PM 63.7°F17.6°C 59.7°F15.4°C 87% Calm Calm 2.0 mph3.2 kmh 29.86 in1011.2 mb 0.00 in0.0 mm 0.00 in0.0 mm 0.00 in0.0 mm
08:16 PM 63.3°F17.4°C 59.7°F15.4°C 88% 0.9 mph S1.4 kmh S 2.0 mph3.2 kmh 29.86 in1011.2 mb 0.00 in0.0 mm 0.00 in0.0 mm 0.00 in0.0 mm
08:26 PM 63.0°F17.2°C 59.4°F15.2°C 88% 0.9 mph SSE1.4 kmh SSE 2.0 mph3.2 kmh 29.86 in1011.2 mb 0.00 in0.0 mm 0.00 in0.0 mm 0.00 in0.0 mm
08:36 PM 62.8°F17.1°C 59.2°F15.1°C 88% Calm Calm 0.9 mph1.4 kmh 29.86 in1011.2 mb 0.00 in0.0 mm 0.00 in0.0 mm 0.00 in0.0 mm
08:46 PM 62.4°F16.9°C 58.8°F14.9°C 88% 0.9 mph SE1.4 kmh SE 0.9 mph1.4 kmh 29.87 in1011.5 mb 0.00 in0.0 mm 0.00 in0.0 mm 0.00 in0.0 mm
08:56 PM 61.7°F16.5°C 58.5°F14.7°C 89% Calm Calm 0.9 mph1.4 kmh 29.87 in1011.5 mb 0.00 in0.0 mm 0.00 in0.0 mm 0.00 in0.0 mm
09:06 PM 61.3°F16.3°C 58.5°F14.7°C 90% Calm Calm 0.9 mph1.4 kmh 29.87 in1011.5 mb 0.00 in0.0 mm 0.00 in0.0 mm 0.00 in0.0 mm
09:16 PM 61.0°F16.1°C 58.1°F14.5°C 90% Calm Calm 0.9 mph1.4 kmh 29.87 in1011.5 mb 0.00 in0.0 mm 0.00 in0.0 mm 0.00 in0.0 mm
09:26 PM 60.6°F15.9°C 57.9°F14.4°C 91% Calm Calm 0.9 mph1.4 kmh 29.87 in1011.5 mb 0.00 in0.0 mm 0.00 in0.0 mm 0.00 in0.0 mm
09:36 PM 60.4°F15.8°C 57.6°F14.2°C 90% Calm Calm -- 29.88 in1011.9 mb 0.00 in0.0 mm 0.00 in0.0 mm 0.00 in0.0 mm
09:46 PM 60.3°F15.7°C 57.6°F14.2°C 91% Calm Calm -- 29.88 in1011.9 mb 0.00 in0.0 mm 0.00 in0.0 mm 0.00 in0.0 mm
09:56 PM 60.1°F15.6°C 57.4°F14.1°C 91% Calm Calm -- 29.88 in1011.9 mb 0.00 in0.0 mm 0.00 in0.0 mm 0.00 in0.0 mm
10:06 PM 59.9°F15.5°C 57.2°F14.0°C 91% Calm Calm -- 29.88 in1011.9 mb 0.00 in0.0 mm 0.00 in0.0 mm 0.00 in0.0 mm
10:16 PM 59.5°F15.3°C 56.8°F13.8°C 91% Calm Calm -- 29.88 in1011.9 mb 0.00 in0.0 mm 0.00 in0.0 mm 0.00 in0.0 mm
10:26 PM 59.2°F15.1°C 56.5°F13.6°C 91% 0.9 mph NE1.4 kmh NE 5.0 mph8.0 kmh 29.88 in1011.9 mb 0.00 in0.0 mm 0.00 in0.0 mm 0.00 in0.0 mm
10:36 PM 59.0°F15.0°C 56.3°F13.5°C 91% 0.9 mph ENE1.4 kmh ENE 2.9 mph4.7 kmh 29.88 in1011.9 mb 0.00 in0.0 mm 0.00 in0.0 mm 0.00 in0.0 mm
10:46 PM 58.6°F14.8°C 56.3°F13.5°C 92% 2.0 mph ENE3.2 kmh ENE 4.0 mph6.4 kmh 29.88 in1011.9 mb 0.00 in0.0 mm 0.00 in0.0 mm 0.00 in0.0 mm
10:56 PM 58.6°F14.8°C 56.3°F13.5°C 92% 0.9 mph ENE1.4 kmh ENE 2.9 mph4.7 kmh 29.88 in1011.9 mb 0.00 in0.0 mm 0.00 in0.0 mm 0.00 in0.0 mm
11:06 PM 58.6°F14.8°C 56.3°F13.5°C 92% 0.9 mph E1.4 kmh E 4.0 mph6.4 kmh 29.88 in1011.9 mb 0.00 in0.0 mm 0.00 in0.0 mm 0.00 in0.0 mm
11:16 PM 58.5°F14.7°C 56.1°F13.4°C 92% Calm Calm 2.9 mph4.7 kmh 29.89 in1012.2 mb 0.00 in0.0 mm 0.00 in0.0 mm 0.00 in0.0 mm
11:26 PM 58.5°F14.7°C 56.1°F13.4°C 92% Calm Calm 0.9 mph1.4 kmh 29.89 in1012.2 mb 0.00 in0.0 mm 0.00 in0.0 mm 0.00 in0.0 mm
11:36 PM 57.9°F14.4°C 55.6°F13.1°C 92% Calm Calm 0.9 mph1.4 kmh 29.89 in1012.2 mb 0.00 in0.0 mm 0.00 in0.0 mm 0.00 in0.0 mm
11:46 PM 57.9°F14.4°C 55.6°F13.1°C 92% Calm Calm -- 29.89 in1012.2 mb 0.00 in0.0 mm 0.00 in0.0 mm 0.00 in0.0 mm
11:56 PM 57.4°F14.1°C 55.0°F12.8°C 92% Calm Calm 2.0 mph3.2 kmh 29.89 in1012.2 mb 0.00 in0.0 mm 0.00 in0.0 mm 0.00 in0.0 mm